Time;durP1;ratioP1;P1;durP2;ratioP2;P2;SDS_P1;SDS_P2;PMS_P1;PMS_P2;Temp;Humidity;BMP_temperature;BMP_pressure;BME280_temperature;BME280_humidity;BME280_pressure;Samples;Min_cycle;Max_cycle;Signal;HPM_P1;HPM_P2
2023/04/08 00:01:30;;;;;;;25.30;17.97;;;;;;;7.09;100.00;95811.09;6044100;23;20157;-83
2023/04/08 00:03:55;;;;;;;27.07;19.17;;;;;;;7.05;100.00;95815.66;6043852;23;20214;-82
2023/04/08 00:06:20;;;;;;;26.20;18.80;;;;;;;7.08;100.00;95815.44;6043213;23;20168;-82
2023/04/08 00:08:45;;;;;;;29.57;19.67;;;;;;;7.05;100.00;95814.84;6043761;23;20603;-81
2023/04/08 00:11:11;;;;;;;27.93;18.77;;;;;;;7.05;100.00;95814.84;6044442;23;20181;-82
2023/04/08 00:13:36;;;;;;;28.43;19.53;;;;;;;7.02;100.00;95817.66;6066857;23;20172;-83
2023/04/08 00:16:02;;;;;;;29.40;20.03;;;;;;;6.96;100.00;95815.56;6043518;23;20176;-82
2023/04/08 00:18:28;;;;;;;25.93;18.53;;;;;;;6.98;100.00;95818.81;6044075;23;20161;-82
2023/04/08 00:20:53;;;;;;;31.00;19.60;;;;;;;7.00;100.00;95822.97;6042900;23;20188;-83
2023/04/08 00:23:20;;;;;;;31.47;21.30;;;;;;;7.01;100.00;95824.59;6042692;23;20560;-82
2023/04/08 00:25:45;;;;;;;29.10;20.57;;;;;;;7.03;100.00;95827.88;6043333;23;20184;-83
2023/04/08 00:28:10;;;;;;;27.13;19.80;;;;;;;7.03;100.00;95827.06;6043168;23;20165;-82
2023/04/08 00:30:36;;;;;;;27.47;19.70;;;;;;;6.99;100.00;95816.16;6043256;23;20188;-82
2023/04/08 00:33:01;;;;;;;27.47;18.93;;;;;;;7.08;100.00;95824.94;6067309;23;20170;-82
2023/04/08 00:35:26;;;;;;;28.57;19.27;;;;;;;7.13;100.00;95822.81;6042681;23;20164;-82
2023/04/08 00:37:52;;;;;;;27.17;19.53;;;;;;;7.12;100.00;95825.50;6042989;23;20165;-83
2023/04/08 00:40:17;;;;;;;29.33;19.70;;;;;;;7.06;100.00;95821.63;6042957;23;20196;-82
2023/04/08 00:42:42;;;;;;;27.00;18.43;;;;;;;6.94;100.00;95828.59;6043293;23;20618;-82
2023/04/08 00:45:08;;;;;;;26.83;17.43;;;;;;;6.94;100.00;95823.41;6042229;23;20168;-82
2023/04/08 00:47:34;;;;;;;24.63;17.93;;;;;;;6.79;100.00;95824.59;6042594;23;20161;-82
2023/04/08 00:50:00;;;;;;;23.77;17.30;;;;;;;6.98;100.00;95830.00;6052052;23;20567;-83
2023/04/08 00:52:25;;;;;;;24.33;18.53;;;;;;;7.01;100.00;95826.34;6067254;23;20189;-82
2023/04/08 00:54:50;;;;;;;26.87;17.73;;;;;;;7.02;100.00;95833.16;6066781;23;20165;-82
2023/04/08 00:57:16;;;;;;;26.60;17.53;;;;;;;6.85;100.00;95831.06;6067583;23;20216;-82
2023/04/08 00:59:41;;;;;;;26.33;19.23;;;;;;;6.81;100.00;95839.03;6067564;23;20181;-82
2023/04/08 01:02:18;;;;;;;25.73;17.93;;;;;;;6.94;100.00;95831.16;6068138;23;20241;-81
2023/04/08 01:04:52;;;;;;;27.50;18.63;;;;;;;6.86;100.00;95830.94;6067413;23;20154;-82
2023/04/08 01:07:22;;;;;;;26.30;17.87;;;;;;;6.95;100.00;95835.38;6068396;23;20523;-82
2023/04/08 01:09:52;;;;;;;25.30;17.53;;;;;;;6.96;100.00;95826.69;6068365;23;20193;-81
2023/04/08 01:12:26;;;;;;;27.87;18.57;;;;;;;6.80;100.00;95828.81;6069234;23;20244;-82
2023/04/08 01:14:56;;;;;;;32.50;18.47;;;;;;;6.93;100.00;95829.53;6084305;23;20128;-84
2023/04/08 01:17:22;;;;;;;25.43;17.03;;;;;;;6.93;100.00;95839.03;6096241;23;20150;-85
2023/04/08 01:19:48;;;;;;;29.50;19.13;;;;;;;6.94;100.00;95831.16;6095941;23;20254;-85
2023/04/08 01:22:43;;;;;;;31.37;19.67;;;;;;;6.97;100.00;95830.91;6119697;23;20149;-85
2023/04/08 01:25:16;;;;;;;26.97;18.93;;;;;;;6.94;100.00;95827.75;6095685;23;20130;-85
2023/04/08 01:27:42;;;;;;;26.77;18.20;;;;;;;6.88;100.00;95833.38;6095581;23;20156;-85
2023/04/08 01:30:08;;;;;;;25.40;18.03;;;;;;;6.87;100.00;95836.91;6094444;23;20177;-84
2023/04/08 01:32:34;;;;;;;26.63;17.80;;;;;;;6.93;100.00;95836.44;6088098;23;20169;-81
2023/04/08 01:35:00;;;;;;;27.23;18.23;;;;;;;6.89;100.00;95835.03;6067566;23;20161;-83
2023/04/08 01:37:27;;;;;;;31.23;18.97;;;;;;;6.88;100.00;95841.94;6068351;23;20585;-82
2023/04/08 01:39:53;;;;;;;29.63;19.43;;;;;;;6.92;100.00;95845.13;6067546;23;20177;-82
2023/04/08 01:42:19;;;;;;;30.63;20.10;;;;;;;6.78;100.00;95834.09;6066864;23;20213;-82
2023/04/08 01:44:45;;;;;;;30.27;19.83;;;;;;;6.73;100.00;95831.06;6065516;23;20669;-81
2023/04/08 01:47:11;;;;;;;31.57;19.67;;;;;;;6.82;100.00;95834.69;6066059;23;20195;-82
2023/04/08 01:49:37;;;;;;;24.83;16.77;;;;;;;6.86;100.00;95836.09;6065156;23;20197;-82
2023/04/08 01:52:03;;;;;;;28.17;18.00;;;;;;;6.88;100.00;95838.56;6089273;23;20201;-82
2023/04/08 01:54:29;;;;;;;24.97;18.10;;;;;;;6.82;100.00;95830.34;6065436;23;20627;-83
2023/04/08 01:56:56;;;;;;;29.43;19.27;;;;;;;6.82;100.00;95829.53;6064850;23;20181;-81
2023/04/08 01:59:23;;;;;;;30.07;19.93;;;;;;;6.86;100.00;95824.94;6065225;23;20180;-82
2023/04/08 02:01:49;;;;;;;32.77;20.40;;;;;;;6.84;100.00;95824.25;6065533;23;20206;-81
2023/04/08 02:04:14;;;;;;;28.37;19.63;;;;;;;6.82;99.99;95821.78;6065148;23;20165;-82
2023/04/08 02:06:40;;;;;;;28.63;18.83;;;;;;;6.85;100.00;95829.28;6064441;23;20166;-84
2023/04/08 02:09:06;;;;;;;27.90;19.00;;;;;;;6.81;100.00;95827.91;6066523;23;20183;-82
2023/04/08 02:11:31;;;;;;;32.00;19.97;;;;;;;6.84;100.00;95830.25;6065151;23;20245;-82
2023/04/08 02:13:57;;;;;;;29.00;18.63;;;;;;;6.78;100.00;95828.13;6063438;23;20197;-82
2023/04/08 02:16:34;;;;;;;28.80;19.27;;;;;;;6.87;99.71;95822.25;6064776;23;20261;-81
2023/04/08 02:19:05;;;;;;;29.10;19.03;;;;;;;6.80;100.00;95824.50;6065184;23;20157;-82
2023/04/08 02:21:43;;;;;;;29.53;19.23;;;;;;;6.86;100.00;95825.78;6065857;23;20157;-82
2023/04/08 02:24:12;;;;;;;32.07;19.47;;;;;;;6.83;100.00;95820.84;6065911;23;20161;-82
2023/04/08 02:26:39;;;;;;;29.40;18.03;;;;;;;6.77;100.00;95824.72;6064788;23;20236;-81
2023/04/08 02:29:05;;;;;;;30.03;19.43;;;;;;;6.70;100.00;95814.97;6065051;23;20168;-81
2023/04/08 02:31:32;;;;;;;31.23;19.60;;;;;;;6.76;100.00;95820.50;6065957;23;20191;-82
2023/04/08 02:33:58;;;;;;;29.87;18.97;;;;;;;6.74;100.00;95816.41;6065193;23;20161;-81
2023/04/08 02:36:24;;;;;;;29.63;18.60;;;;;;;6.80;99.95;95821.06;6064627;23;20149;-82
2023/04/08 02:38:50;;;;;;;28.80;18.80;;;;;;;6.83;99.96;95823.44;6065187;23;20273;-81
2023/04/08 02:41:15;;;;;;;28.97;18.00;;;;;;;6.79;100.00;95822.84;6065145;23;20654;-81
2023/04/08 02:43:41;;;;;;;28.27;19.20;;;;;;;6.76;100.00;95820.50;6065267;23;20626;-81
2023/04/08 02:46:07;;;;;;;22.60;16.43;;;;;;;6.78;99.82;95817.78;6088754;23;20489;-82
2023/04/08 02:48:32;;;;;;;29.03;17.17;;;;;;;6.73;100.00;95819.91;6065160;23;20161;-82
2023/04/08 02:50:57;;;;;;;25.90;17.20;;;;;;;6.78;99.74;95823.78;6089034;23;20228;-81
2023/04/08 02:53:23;;;;;;;28.20;17.50;;;;;;;6.80;99.58;95823.66;6065196;23;20165;-82
2023/04/08 02:55:49;;;;;;;26.87;17.20;;;;;;;6.77;100.00;95821.31;6064873;23;20494;-83
2023/04/08 02:58:14;;;;;;;25.00;16.37;;;;;;;6.75;100.00;95824.00;6065162;23;20161;-82
2023/04/08 03:00:40;;;;;;;26.80;17.03;;;;;;;6.79;99.97;95815.09;6065219;23;20177;-81
2023/04/08 03:03:05;;;;;;;25.73;16.33;;;;;;;6.75;100.00;95820.63;6063450;23;20167;-82
2023/04/08 03:05:31;;;;;;;27.33;17.50;;;;;;;6.76;99.98;95824.84;6088328;23;20262;-82
2023/04/08 03:07:56;;;;;;;23.50;16.77;;;;;;;6.70;100.00;95820.13;6065738;23;20172;-82
2023/04/08 03:10:21;;;;;;;28.67;18.43;;;;;;;6.75;100.00;95821.44;6064637;23;20220;-82
2023/04/08 03:12:46;;;;;;;27.97;17.50;;;;;;;6.75;100.00;95820.63;6063322;23;20535;-82
2023/04/08 03:15:12;;;;;;;25.13;16.47;;;;;;;6.74;100.00;95827.53;6063964;23;20161;-81
2023/04/08 03:17:37;;;;;;;26.90;18.20;;;;;;;6.78;99.84;95820.38;6064711;23;20157;-82
2023/04/08 03:20:05;;;;;;;28.40;18.07;;;;;;;6.75;99.82;95824.00;6064551;23;20184;-82
2023/04/08 03:22:32;;;;;;;24.47;16.07;;;;;;;6.77;100.00;95816.16;6065652;23;20655;-82
2023/04/08 03:24:57;;;;;;;29.20;17.53;;;;;;;6.76;99.99;95819.66;6064357;23;20647;-82
2023/04/08 03:27:23;;;;;;;28.10;17.50;;;;;;;6.78;99.78;95828.94;6064818;23;20188;-81
2023/04/08 03:29:48;;;;;;;24.73;16.37;;;;;;;6.74;99.95;95824.13;6064800;23;20213;-81
2023/04/08 03:32:13;;;;;;;28.53;18.50;;;;;;;6.75;100.00;95836.09;6065049;23;20244;-82
2023/04/08 03:34:39;;;;;;;25.53;17.17;;;;;;;6.72;100.00;95832.00;6064478;23;20157;-81
2023/04/08 03:37:04;;;;;;;27.10;18.03;;;;;;;6.73;100.00;95832.81;6065132;23;20165;-82
2023/04/08 03:39:30;;;;;;;28.83;18.30;;;;;;;6.72;100.00;95836.34;6064853;23;20499;-82
2023/04/08 03:41:55;;;;;;;28.40;17.63;;;;;;;6.72;100.00;95834.59;6065239;23;20614;-81
2023/04/08 03:44:20;;;;;;;27.13;17.33;;;;;;;6.67;100.00;95831.53;6088839;23;20198;-82
2023/04/08 03:46:46;;;;;;;27.23;16.57;;;;;;;6.73;100.00;95830.25;6064733;23;20154;-82
2023/04/08 03:49:11;;;;;;;29.70;18.27;;;;;;;6.74;100.00;95837.03;6065059;23;20639;-82
2023/04/08 03:51:36;;;;;;;24.90;16.67;;;;;;;6.63;100.00;95831.88;6042145;23;20145;-81
2023/04/08 03:54:02;;;;;;;29.77;17.87;;;;;;;6.68;100.00;95829.75;6065099;23;20169;-82
2023/04/08 03:56:27;;;;;;;26.73;17.93;;;;;;;6.75;100.00;95836.91;6064294;23;20165;-81
2023/04/08 03:58:52;;;;;;;28.63;18.03;;;;;;;6.63;100.00;95831.88;6040722;23;20679;-81
2023/04/08 04:01:17;;;;;;;22.60;15.67;;;;;;;6.64;100.00;95830.94;6040632;23;20165;-81
2023/04/08 04:03:43;;;;;;;22.93;15.70;;;;;;;6.62;100.00;95823.28;6041177;23;20184;-81
2023/04/08 04:06:09;;;;;;;26.10;16.53;;;;;;;6.66;100.00;95826.47;6040112;23;20201;-82
2023/04/08 04:08:34;;;;;;;27.90;17.80;;;;;;;6.67;100.00;95823.78;6041339;23;20604;-81
2023/04/08 04:10:59;;;;;;;30.50;19.57;;;;;;;6.60;100.00;95825.19;6063240;23;20262;-84
2023/04/08 04:13:25;;;;;;;29.53;19.40;;;;;;;6.56;100.00;95826.38;6041132;23;20173;-81
2023/04/08 04:15:50;;;;;;;29.80;18.03;;;;;;;6.61;100.00;95826.00;6040207;23;20176;-82
2023/04/08 04:18:15;;;;;;;30.17;18.60;;;;;;;6.66;100.00;95826.47;6041093;23;20161;-81
2023/04/08 04:20:41;;;;;;;28.60;18.83;;;;;;;6.63;100.00;95831.88;6040904;23;20185;-82
2023/04/08 04:23:07;;;;;;;28.73;18.33;;;;;;;6.66;100.00;95840.19;6065119;23;20165;-83
2023/04/08 04:25:32;;;;;;;27.73;18.80;;;;;;;6.59;100.00;95828.69;6064292;23;20169;-82
2023/04/08 04:27:57;;;;;;;31.77;20.33;;;;;;;6.67;100.00;95826.34;6067273;23;20164;-81
2023/04/08 04:30:23;;;;;;;30.40;21.07;;;;;;;6.69;100.00;95832.22;6042688;23;20181;-81
2023/04/08 04:32:48;;;;;;;27.07;19.40;;;;;;;6.72;100.00;95831.19;6042790;23;20172;-82
2023/04/08 04:35:14;;;;;;;28.47;18.17;;;;;;;6.57;100.00;95840.91;6042218;23;20172;-81
2023/04/08 04:37:39;;;;;;;26.50;18.30;;;;;;;6.61;100.00;95841.47;6066655;23;20217;-82
2023/04/08 04:40:05;;;;;;;27.87;18.87;;;;;;;6.57;100.00;95838.31;6042443;23;20178;-82
2023/04/08 04:42:30;;;;;;;25.70;18.00;;;;;;;6.45;100.00;95837.50;6042676;23;20298;-83
2023/04/08 04:44:56;;;;;;;31.87;22.07;;;;;;;6.52;100.00;95836.06;6041832;23;20637;-81
2023/04/08 04:47:21;;;;;;;31.77;21.30;;;;;;;6.43;100.00;95836.78;6043270;23;20196;-81
2023/04/08 04:49:47;;;;;;;29.37;19.70;;;;;;;6.48;100.00;95834.69;6049179;23;20208;-83
2023/04/08 04:52:12;;;;;;;29.63;20.57;;;;;;;6.50;100.00;95837.94;6066690;23;20169;-81
2023/04/08 04:54:37;;;;;;;30.73;19.80;;;;;;;6.36;100.00;95843.34;6065790;23;20191;-81
2023/04/08 04:57:03;;;;;;;31.93;20.50;;;;;;;6.52;100.00;95843.81;6066718;23;20190;-82
2023/04/08 04:59:28;;;;;;;29.33;19.13;;;;;;;6.39;100.00;95844.88;6066585;23;20173;-81
2023/04/08 05:01:56;;;;;;;31.00;19.93;;;;;;;6.46;100.00;95841.72;6090439;23;20172;-81
2023/04/08 05:04:21;;;;;;;30.80;18.97;;;;;;;6.39;100.00;95839.72;6066945;23;20165;-81
2023/04/08 05:06:47;;;;;;;26.33;17.17;;;;;;;6.45;100.00;95850.41;6065487;23;20157;-81
2023/04/08 05:09:12;;;;;;;29.73;18.00;;;;;;;6.44;100.00;95855.66;6066512;23;20240;-81
2023/04/08 05:11:37;;;;;;;26.93;16.90;;;;;;;6.45;100.00;95854.75;6066944;23;20169;-82
2023/04/08 05:14:02;;;;;;;26.67;17.40;;;;;;;6.48;100.00;95857.06;6066308;23;20481;-81
2023/04/08 05:16:28;;;;;;;24.40;16.23;;;;;;;6.47;100.00;95860.59;6067314;23;20165;-81
2023/04/08 05:18:53;;;;;;;27.70;17.80;;;;;;;6.53;100.00;95860.94;6065186;23;20169;-80
2023/04/08 05:21:18;;;;;;;28.37;17.70;;;;;;;6.38;100.00;95859.53;6066709;23;20157;-80
2023/04/08 05:23:44;;;;;;;30.80;20.17;;;;;;;6.52;100.00;95869.63;6066044;23;20165;-81
2023/04/08 05:26:09;;;;;;;28.33;17.70;;;;;;;6.38;100.00;95871.59;6065798;23;20165;-80
2023/04/08 05:28:35;;;;;;;30.10;19.03;;;;;;;6.50;100.00;95870.69;6066003;23;20542;-81
2023/04/08 05:31:00;;;;;;;30.60;19.17;;;;;;;6.59;100.00;95874.31;6090161;23;20195;-80
2023/04/08 05:33:25;;;;;;;29.60;18.53;;;;;;;6.53;100.00;95873.84;6066007;23;20184;-81
2023/04/08 05:35:52;;;;;;;28.77;18.40;;;;;;;6.58;100.00;95872.69;6065735;23;20194;-81
2023/04/08 05:38:17;;;;;;;33.40;20.77;;;;;;;6.59;100.00;95874.31;6066324;23;20177;-80
2023/04/08 05:40:42;;;;;;;37.33;22.40;;;;;;;6.63;99.87;95876.56;6065830;23;20180;-80
2023/04/08 05:43:08;;;;;;;35.47;21.03;;;;;;;6.58;100.00;95877.84;6066477;23;20154;-81
2023/04/08 05:45:33;;;;;;;33.70;20.67;;;;;;;6.41;100.00;95874.75;6065590;23;20192;-80
2023/04/08 05:47:58;;;;;;;35.47;20.47;;;;;;;6.56;100.00;95875.38;6066508;23;20168;-80
2023/04/08 05:50:24;;;;;;;34.70;19.90;;;;;;;6.60;100.00;95876.78;6066122;23;20199;-82
2023/04/08 05:52:49;;;;;;;39.17;23.43;;;;;;;6.21;100.00;95872.84;6066393;23;20689;-80
2023/04/08 05:55:15;;;;;;;38.77;24.80;;;;;;;6.51;100.00;95880.88;6065308;23;20166;-80
2023/04/08 05:57:40;;;;;;;39.83;23.97;;;;;;;6.57;100.00;95884.78;6066060;23;20603;-80
2023/04/08 06:00:07;;;;;;;37.93;24.10;;;;;;;6.56;100.00;95882.31;6066247;23;20193;-81
2023/04/08 06:02:34;;;;;;;40.27;25.30;;;;;;;6.56;100.00;95884.88;6066323;23;20167;-80
2023/04/08 06:04:59;;;;;;;46.70;26.47;;;;;;;6.66;100.00;95891.81;6065435;23;20184;-81
2023/04/08 06:07:25;;;;;;;45.50;27.20;;;;;;;6.55;100.00;95886.66;6065802;23;20596;-80
2023/04/08 06:09:50;;;;;;;46.90;28.33;;;;;;;6.74;100.00;95893.81;6065694;23;20189;-82
2023/04/08 06:12:15;;;;;;;48.53;28.33;;;;;;;6.86;99.87;95895.47;6066242;23;20201;-80
2023/04/08 06:14:41;;;;;;;41.20;25.10;;;;;;;6.82;99.85;95894.06;6065457;23;20158;-79
2023/04/08 06:17:06;;;;;;;43.50;25.93;;;;;;;7.00;99.40;95894.44;6065795;23;20157;-80
2023/04/08 06:19:31;;;;;;;37.50;22.53;;;;;;;7.04;98.19;95898.41;6064801;23;20449;-79
2023/04/08 06:21:57;;;;;;;27.53;18.57;;;;;;;7.00;98.74;95908.16;6066074;23;20596;-80
2023/04/08 06:24:26;;;;;;;29.37;19.37;;;;;;;7.19;96.95;95901.59;6066084;23;20161;-80
2023/04/08 06:26:53;;;;;;;29.87;18.97;;;;;;;7.39;95.98;95906.84;6041102;23;20164;-80
2023/04/08 06:29:21;;;;;;;25.67;17.87;;;;;;;7.17;96.23;95909.47;6090041;23;20189;-80
2023/04/08 06:31:47;;;;;;;27.70;17.80;;;;;;;7.23;95.58;95910.72;6067849;23;20157;-80
2023/04/08 06:34:12;;;;;;;24.50;17.43;;;;;;;7.24;95.46;95907.19;6066254;23;20168;-80
2023/04/08 06:36:37;;;;;;;30.53;18.47;;;;;;;7.30;95.53;95920.47;6065229;23;20291;-80
2023/04/08 06:39:03;;;;;;;28.57;18.03;;;;;;;7.13;95.97;95920.13;6067913;23;20153;-80
2023/04/08 06:41:29;;;;;;;26.30;17.87;;;;;;;7.14;95.70;95916.59;6066170;23;20244;-79
2023/04/08 06:43:54;;;;;;;25.57;15.47;;;;;;;7.28;94.94;95918.97;6066447;23;20263;-80
2023/04/08 06:46:20;;;;;;;23.13;13.93;;;;;;;7.27;94.68;95927.66;6065635;23;20157;-79
2023/04/08 06:48:45;;;;;;;21.07;13.53;;;;;;;7.00;96.11;95925.41;6066562;23;20165;-80
2023/04/08 06:51:11;;;;;;;21.47;14.67;;;;;;;7.29;94.56;95920.59;6066042;23;20207;-80
2023/04/08 06:53:36;;;;;;;22.83;14.63;;;;;;;7.14;94.52;95929.50;6066596;23;20619;-79
2023/04/08 06:56:01;;;;;;;21.40;14.97;;;;;;;7.19;94.88;95930.00;6065263;23;20180;-80
2023/04/08 06:58:27;;;;;;;23.30;13.90;;;;;;;7.16;94.53;95931.06;6066385;23;20180;-80
2023/04/08 07:00:54;;;;;;;18.73;12.73;;;;;;;7.01;94.90;95934.81;6066208;23;20181;-79
2023/04/08 07:03:20;;;;;;;22.37;14.60;;;;;;;7.17;93.93;95931.88;6043041;23;20157;-78
2023/04/08 07:05:46;;;;;;;19.77;14.40;;;;;;;7.18;94.25;95929.19;6065421;23;20181;-82
2023/04/08 07:08:11;;;;;;;21.77;13.50;;;;;;;7.29;94.77;95930.94;6066511;23;20161;-82
2023/04/08 07:10:36;;;;;;;20.03;13.40;;;;;;;7.46;93.33;95932.22;6065958;23;20244;-81
2023/04/08 07:13:02;;;;;;;16.93;11.23;;;;;;;7.30;93.60;95935.97;6066444;23;20169;-81
2023/04/08 07:15:28;;;;;;;18.43;11.33;;;;;;;7.45;93.13;95936.56;6065154;23;20192;-80
2023/04/08 07:17:55;;;;;;;17.13;11.63;;;;;;;7.38;92.45;95935.38;6066341;23;20172;-81
2023/04/08 07:20:21;;;;;;;18.83;13.03;;;;;;;7.41;92.97;95940.31;6064577;23;20248;-81
2023/04/08 07:22:47;;;;;;;19.80;13.10;;;;;;;7.45;92.19;95935.75;6066141;23;20153;-80
2023/04/08 07:25:12;;;;;;;19.57;12.40;;;;;;;7.30;92.61;95942.91;6065410;23;20168;-81
2023/04/08 07:27:37;;;;;;;18.57;12.23;;;;;;;7.60;92.64;95942.31;6066420;23;20595;-81
2023/04/08 07:30:03;;;;;;;16.53;11.97;;;;;;;7.65;91.25;95948.75;6066526;23;20177;-80
2023/04/08 07:32:28;;;;;;;17.30;12.20;;;;;;;7.72;90.41;95953.44;6066114;23;20176;-80
2023/04/08 07:34:54;;;;;;;16.33;11.57;;;;;;;7.66;89.94;95947.81;6065643;23;20160;-81
2023/04/08 07:37:19;;;;;;;17.13;12.33;;;;;;;7.74;88.49;95949.78;6065729;23;20612;-84
2023/04/08 07:39:45;;;;;;;19.10;12.93;;;;;;;8.02;88.87;95956.19;6067395;23;20173;-79
2023/04/08 07:42:10;;;;;;;19.50;12.83;;;;;;;7.64;90.67;95961.78;6066201;23;20497;-80
2023/04/08 07:44:37;;;;;;;14.97;10.97;;;;;;;7.60;89.18;95963.81;6067963;23;20157;-80
2023/04/08 07:47:02;;;;;;;15.50;11.60;;;;;;;7.65;89.69;95961.66;6065688;23;20212;-80
2023/04/08 07:49:27;;;;;;;15.77;10.93;;;;;;;7.62;89.59;95964.50;6065727;23;20526;-80
2023/04/08 07:51:53;;;;;;;17.03;11.73;;;;;;;7.86;88.83;95968.69;6066650;23;20162;-79
2023/04/08 07:54:18;;;;;;;17.03;11.70;;;;;;;8.40;87.41;95966.09;6066604;23;20161;-79
2023/04/08 07:56:44;;;;;;;15.93;11.47;;;;;;;8.71;85.80;95966.19;6065385;23;20232;-80
2023/04/08 07:59:10;;;;;;;19.40;12.13;;;;;;;8.83;84.34;95972.13;6066170;23;20209;-80
2023/04/08 08:01:35;;;;;;;17.23;11.77;;;;;;;8.72;84.53;95954.88;6066141;23;20150;-79
2023/04/08 08:04:01;;;;;;;14.73;10.83;;;;;;;8.79;84.41;95968.97;6091250;23;20163;-79
2023/04/08 08:06:26;;;;;;;16.90;11.87;;;;;;;8.74;83.83;95969.34;6066758;23;20165;-79
2023/04/08 08:08:52;;;;;;;15.07;11.07;;;;;;;8.80;84.17;95981.78;6066991;23;20180;-79
2023/04/08 08:11:17;;;;;;;17.97;12.43;;;;;;;8.80;83.29;95980.97;6068857;23;20176;-79
2023/04/08 08:13:43;;;;;;;18.77;13.00;;;;;;;8.71;83.90;95977.38;6067181;23;20164;-79
2023/04/08 08:16:10;;;;;;;16.63;11.97;;;;;;;8.83;82.34;95977.28;6066090;23;20165;-79
2023/04/08 08:18:36;;;;;;;16.53;12.00;;;;;;;8.87;83.34;95983.88;6091319;23;20165;-79
2023/04/08 08:21:01;;;;;;;16.63;11.97;;;;;;;8.99;82.58;95977.69;6066902;23;20361;-79
2023/04/08 08:23:26;;;;;;;17.37;12.33;;;;;;;8.91;81.82;95974.91;6066547;23;20173;-79
2023/04/08 08:25:58;;;;;;;16.53;12.30;;;;;;;9.38;80.91;95983.91;6090354;23;20168;-79
2023/04/08 08:28:24;;;;;;;17.10;12.97;;;;;;;9.39;80.62;95980.34;6043118;23;20149;-80
2023/04/08 08:30:49;;;;;;;17.17;12.47;;;;;;;9.75;80.56;95986.78;6065362;23;20180;-79
2023/04/08 08:33:15;;;;;;;17.37;13.87;;;;;;;9.56;77.53;95990.13;6068258;23;20157;-79
2023/04/08 08:35:40;;;;;;;21.00;13.47;;;;;;;9.92;76.67;95993.91;6066096;23;20824;-80
2023/04/08 08:38:06;;;;;;;19.47;14.53;;;;;;;9.91;75.61;95991.47;6066660;23;20165;-80
2023/04/08 08:40:31;;;;;;;17.87;12.90;;;;;;;9.80;76.26;95994.13;6091114;23;20190;-80
2023/04/08 08:42:58;;;;;;;17.87;13.03;;;;;;;9.90;76.04;95995.00;6067472;23;20159;-80
2023/04/08 08:45:23;;;;;;;18.83;13.60;;;;;;;9.98;75.87;95997.75;6067943;23;20161;-78
2023/04/08 08:47:48;;;;;;;17.07;13.53;;;;;;;9.62;74.71;95999.94;6067036;23;20200;-82
2023/04/08 08:50:14;;;;;;;19.10;13.87;;;;;;;9.78;74.20;96002.06;6091156;23;20197;-81
2023/04/08 08:52:47;;;;;;;16.47;13.47;;;;;;;10.05;72.25;96000.63;6068973;23;20213;-82
2023/04/08 08:55:13;;;;;;;17.93;14.13;;;;;;;9.79;72.86;96013.25;6066169;23;20161;-81
2023/04/08 08:57:38;;;;;;;15.87;13.00;;;;;;;9.97;70.73;96014.25;6068229;23;20209;-82
2023/04/08 09:00:04;;;;;;;15.43;12.67;;;;;;;9.84;71.41;96011.09;6067804;23;20180;-83
2023/04/08 09:02:30;;;;;;;18.50;13.47;;;;;;;9.77;69.95;96008.19;6091395;23;20169;-83
2023/04/08 09:05:01;;;;;;;19.23;13.97;;;;;;;10.24;68.57;96007.66;6066175;23;20165;-82
2023/04/08 09:07:28;;;;;;;17.10;13.67;;;;;;;10.43;68.50;96012.91;6089980;23;20592;-82
2023/04/08 09:09:55;;;;;;;16.53;14.17;;;;;;;10.08;69.50;96013.34;6091006;23;20177;-82
2023/04/08 09:12:21;;;;;;;16.83;13.53;;;;;;;10.41;67.17;96012.19;6067337;23;20193;-83
2023/04/08 09:14:47;;;;;;;15.70;12.20;;;;;;;10.45;68.67;96016.19;6064155;23;20168;-80
2023/04/08 09:17:13;;;;;;;16.80;13.80;;;;;;;10.33;66.16;96006.84;6063067;23;20169;-80
2023/04/08 09:19:38;;;;;;;16.37;13.07;;;;;;;10.34;69.07;96009.34;6087262;23;20252;-80
2023/04/08 09:22:06;;;;;;;18.07;13.50;;;;;;;10.76;67.54;96017.69;6064196;23;20158;-79
2023/04/08 09:24:31;;;;;;;17.17;13.53;;;;;;;11.05;62.75;96012.47;6063885;23;20167;-80
2023/04/08 09:26:57;;;;;;;16.57;13.10;;;;;;;11.09;61.70;96015.59;6063417;23;20157;-79
2023/04/08 09:29:23;;;;;;;15.63;13.13;;;;;;;11.10;65.48;96009.44;6085879;23;20295;-78
2023/04/08 09:31:52;;;;;;;20.00;13.07;;;;;;;11.29;64.68;96012.00;6087494;23;20168;-80
2023/04/08 09:34:22;;;;;;;16.17;12.80;;;;;;;11.24;61.90;96014.22;6087380;23;20158;-80
2023/04/08 09:36:48;;;;;;;17.80;13.70;;;;;;;11.27;60.34;96013.13;6061422;23;20169;-81
2023/04/08 09:39:14;;;;;;;17.10;13.83;;;;;;;10.81;59.19;96006.88;6063079;23;20185;-80
2023/04/08 09:41:40;;;;;;;15.03;12.93;;;;;;;11.17;59.29;96010.53;6089294;23;20168;-83
2023/04/08 09:44:10;;;;;;;14.23;12.40;;;;;;;11.27;59.52;96008.72;6065993;23;20157;-83
2023/04/08 09:46:48;;;;;;;17.83;13.90;;;;;;;11.40;58.60;96015.44;6089648;23;20166;-83
2023/04/08 09:49:36;;;;;;;15.00;12.40;;;;;;;10.90;57.34;96015.63;6067065;23;20240;-81
2023/04/08 09:52:16;;;;;;;14.13;12.67;;;;;;;10.91;57.88;96019.88;6041707;23;20173;-83
2023/04/08 09:55:01;;;;;;;14.40;12.90;;;;;;;11.55;56.27;96021.78;6040391;23;20220;-82
2023/04/08 09:57:32;;;;;;;14.30;12.80;;;;;;;10.65;53.72;96022.19;6066342;23;20289;-81
2023/04/08 10:00:04;;;;;;;15.57;12.77;;;;;;;10.57;56.58;96027.25;6042841;23;20502;-81
2023/04/08 10:02:32;;;;;;;16.70;13.10;;;;;;;11.40;60.37;96018.03;6068432;23;20550;-83
2023/04/08 10:04:59;;;;;;;16.50;12.70;;;;;;;11.60;60.05;96025.63;6045721;23;20161;-83
2023/04/08 10:07:24;;;;;;;16.60;13.47;;;;;;;11.31;61.75;96030.09;6045668;23;20181;-82
2023/04/08 10:09:51;;;;;;;16.43;13.67;;;;;;;11.56;59.93;96028.63;6060870;23;20190;-82
2023/04/08 10:12:17;;;;;;;15.33;13.50;;;;;;;11.67;57.04;96032.88;6061544;23;20176;-82
2023/04/08 10:15:21;;;;;;;15.17;13.00;;;;;;;11.17;53.22;96025.31;6056002;23;20145;-82
2023/04/08 10:17:46;;;;;;;16.03;13.50;;;;;;;11.36;53.33;96040.88;6095400;23;20168;-82
2023/04/08 10:20:34;;;;;;;15.80;13.03;;;;;;;11.71;55.23;96027.22;6070901;23;20193;-82
2023/04/08 10:23:02;;;;;;;15.80;14.00;;;;;;;11.94;57.51;96027.72;6095470;23;20173;-82
2023/04/08 10:25:32;;;;;;;16.70;14.07;;;;;;;12.10;57.08;96024.47;6069084;23;20205;-83
2023/04/08 10:27:59;;;;;;;15.63;13.03;;;;;;;11.56;52.67;96026.84;6068465;23;20134;-82
2023/04/08 10:30:24;;;;;;;16.90;13.10;;;;;;;11.97;53.99;96029.19;6044605;23;20519;-82
2023/04/08 10:32:50;;;;;;;16.13;12.73;;;;;;;11.78;51.05;96033.50;6043780;23;20165;-82
2023/04/08 10:35:16;;;;;;;13.77;11.90;;;;;;;11.47;50.22;96019.91;6043783;23;20173;-82
2023/04/08 10:37:42;;;;;;;17.27;13.40;;;;;;;11.13;54.46;96013.53;6043736;23;20169;-82
2023/04/08 10:40:18;;;;;;;15.13;12.53;;;;;;;10.94;55.08;96023.00;6042704;23;20248;-82
2023/04/08 10:42:43;;;;;;;16.73;14.57;;;;;;;11.32;54.35;96022.16;6042030;23;20141;-83
2023/04/08 10:45:09;;;;;;;15.53;12.43;;;;;;;11.00;53.11;96021.63;6040148;23;20146;-82
2023/04/08 10:47:34;;;;;;;15.70;12.27;;;;;;;11.42;53.17;96024.72;6041548;23;20157;-82
2023/04/08 10:50:01;;;;;;;15.53;13.10;;;;;;;10.37;54.19;96024.63;6049810;23;20498;-81
2023/04/08 10:52:26;;;;;;;15.83;12.93;;;;;;;11.12;53.73;96023.13;6088569;23;20196;-81
2023/04/08 10:54:52;;;;;;;16.10;13.63;;;;;;;11.17;51.66;96022.72;6063465;23;20508;-81
2023/04/08 10:57:24;;;;;;;14.57;13.07;;;;;;;10.93;53.07;96018.75;6064811;23;20627;-81
2023/04/08 10:59:50;;;;;;;14.07;12.60;;;;;;;11.19;55.85;96011.22;6064567;23;20179;-82
2023/04/08 11:02:15;;;;;;;15.20;12.83;;;;;;;11.37;52.78;96015.69;6063957;23;20184;-82
2023/04/08 11:04:41;;;;;;;13.13;11.70;;;;;;;11.29;53.39;96014.59;6064747;23;20164;-81
2023/04/08 11:07:08;;;;;;;16.03;12.77;;;;;;;11.14;52.58;96023.81;6062975;23;20161;-83
2023/04/08 11:09:34;;;;;;;15.60;12.07;;;;;;;11.18;53.22;96025.16;6065081;23;20205;-82
2023/04/08 11:12:00;;;;;;;16.13;12.27;;;;;;;11.05;54.60;96014.25;6065255;23;20161;-82
2023/04/08 11:14:26;;;;;;;14.70;12.50;;;;;;;11.14;55.64;96018.63;6065081;23;20257;-82
2023/04/08 11:16:51;;;;;;;14.30;12.50;;;;;;;11.06;55.56;96016.72;6064977;23;20549;-84